Time;durP1;ratioP1;P1;durP2;ratioP2;P2;SDS_P1;SDS_P2;PMS_P1;PMS_P2;Temp;Humidity;BMP_temperature;BMP_pressure;BME280_temperature;BME280_humidity;BME280_pressure;Samples;Min_cycle;Max_cycle;Signal;HPM_P1;HPM_P2
2022/04/15 00:01:23;;;;;;;18.33;16.10;;;;;;;7.60;100.00;101379.69;5024949;28;20778;-58
2022/04/15 00:03:52;;;;;;;19.40;16.60;;;;;;;7.66;100.00;101384.78;5024730;28;20135;-58
2022/04/15 00:06:18;;;;;;;18.10;16.20;;;;;;;7.76;100.00;101386.28;5026719;28;20032;-58
2022/04/15 00:08:43;;;;;;;20.15;17.42;;;;;;;7.82;100.00;101380.91;5043009;28;20584;-58
2022/04/15 00:11:10;;;;;;;24.90;16.23;;;;;;;7.84;100.00;101383.50;5045522;28;20040;-58
2022/04/15 00:13:35;;;;;;;17.10;15.20;;;;;;;7.85;100.00;101380.84;5046788;28;20031;-58
2022/04/15 00:16:03;;;;;;;21.20;16.50;;;;;;;7.86;100.00;101372.09;5050813;28;20146;-57
2022/04/15 00:18:28;;;;;;;18.58;15.38;;;;;;;7.81;100.00;101360.03;5049780;28;20024;-58
2022/04/15 00:20:54;;;;;;;18.83;16.85;;;;;;;7.83;100.00;101385.25;5049907;28;20028;-58
2022/04/15 00:23:22;;;;;;;18.35;15.25;;;;;;;7.78;100.00;101374.03;5030598;28;20094;-57
2022/04/15 00:25:49;;;;;;;20.60;16.05;;;;;;;7.58;100.00;101337.84;5048795;28;20086;-58
2022/04/15 00:28:14;;;;;;;28.73;17.85;;;;;;;7.67;100.00;101352.50;5048324;28;20035;-58
2022/04/15 00:30:40;;;;;;;22.45;15.88;;;;;;;7.86;100.00;101381.69;5066198;28;20066;-58
2022/04/15 00:33:05;;;;;;;24.20;17.13;;;;;;;7.87;100.00;101378.19;5054399;28;20021;-58
2022/04/15 00:35:31;;;;;;;17.65;15.55;;;;;;;7.82;100.00;101373.06;5049810;28;20153;-58
2022/04/15 00:37:56;;;;;;;19.13;13.65;;;;;;;7.74;100.00;101382.81;5049238;28;20131;-58
2022/04/15 00:40:21;;;;;;;19.58;13.95;;;;;;;7.62;100.00;101383.97;5050582;28;20917;-58
2022/04/15 00:42:47;;;;;;;20.02;15.85;;;;;;;7.45;100.00;101374.78;5049143;28;20038;-58
2022/04/15 00:45:12;;;;;;;26.45;15.93;;;;;;;7.40;100.00;101387.09;5029861;28;20056;-58
2022/04/15 00:47:52;;;;;;;18.33;16.38;;;;;;;7.23;100.00;101374.38;5049482;28;20090;-58
2022/04/15 00:50:19;;;;;;;20.85;15.32;;;;;;;7.24;100.00;101394.38;5049633;28;20132;-58
2022/04/15 00:52:47;;;;;;;21.23;17.30;;;;;;;6.96;100.00;101357.50;5047832;28;20028;-58
2022/04/15 00:55:14;;;;;;;19.95;16.92;;;;;;;7.07;100.00;101383.41;5056724;28;20086;-58
2022/04/15 00:57:44;;;;;;;21.15;17.35;;;;;;;7.00;100.00;101382.66;5094783;28;20123;-58
2022/04/15 01:00:12;;;;;;;18.80;15.82;;;;;;;6.86;100.00;101371.63;5076822;28;20552;-58
2022/04/15 01:02:38;;;;;;;20.63;18.38;;;;;;;6.90;100.00;101380.25;5094696;28;20059;-57
2022/04/15 01:05:06;;;;;;;18.98;15.63;;;;;;;6.83;100.00;101384.75;5094431;28;20064;-57
2022/04/15 01:07:38;;;;;;;22.88;15.57;;;;;;;6.80;100.00;101394.38;5095008;28;20048;-57
2022/04/15 01:10:06;;;;;;;22.83;17.02;;;;;;;6.73;100.00;101384.94;5094157;28;20557;-58
2022/04/15 01:12:33;;;;;;;21.35;17.67;;;;;;;6.72;100.00;101396.31;5094142;28;20864;-57
2022/04/15 01:15:02;;;;;;;21.40;18.40;;;;;;;6.65;100.00;101395.56;5076218;28;20059;-57
2022/04/15 01:17:28;;;;;;;24.38;18.77;;;;;;;6.61;100.00;101399.97;5085604;28;20910;-58
2022/04/15 01:19:54;;;;;;;24.80;18.70;;;;;;;6.63;100.00;101405.16;5055897;28;20103;-57
2022/04/15 01:22:23;;;;;;;22.17;18.30;;;;;;;6.55;100.00;101387.03;5092483;28;20059;-57
2022/04/15 01:24:48;;;;;;;21.63;17.98;;;;;;;6.56;100.00;101400.91;5092272;28;20051;-57
2022/04/15 01:27:28;;;;;;;23.25;19.75;;;;;;;6.50;100.00;101393.19;5092312;28;20649;-58
2022/04/15 01:29:53;;;;;;;23.63;18.92;;;;;;;6.51;100.00;101403.63;5074494;28;20028;-57
2022/04/15 01:32:18;;;;;;;26.65;20.55;;;;;;;6.47;100.00;101403.69;5093698;28;20101;-57
2022/04/15 01:34:44;;;;;;;25.75;19.33;;;;;;;6.47;100.00;101407.16;5093728;28;20389;-58
2022/04/15 01:37:10;;;;;;;26.70;20.70;;;;;;;6.47;100.00;101403.69;5093308;28;20024;-58
2022/04/15 01:39:38;;;;;;;25.55;19.73;;;;;;;6.45;100.00;101408.09;5092739;28;20031;-57
2022/04/15 01:42:04;;;;;;;23.30;18.80;;;;;;;6.25;100.00;101381.47;5071141;28;20024;-58
2022/04/15 01:44:29;;;;;;;25.65;19.05;;;;;;;6.39;100.00;101405.56;5074816;28;20039;-57
2022/04/15 01:46:54;;;;;;;27.00;20.95;;;;;;;6.23;100.00;101388.44;5093954;28;20051;-57
2022/04/15 01:49:20;;;;;;;24.85;20.80;;;;;;;6.35;100.00;101416.97;5105656;28;20393;-57
2022/04/15 01:51:45;;;;;;;28.05;21.63;;;;;;;6.35;100.00;101414.34;5113574;28;20031;-57
2022/04/15 01:54:10;;;;;;;24.42;20.27;;;;;;;6.34;100.00;101421.31;5049368;28;20036;-57
2022/04/15 01:56:36;;;;;;;23.80;18.75;;;;;;;6.33;100.00;101427.41;5067060;28;20028;-57
2022/04/15 01:59:01;;;;;;;23.05;19.55;;;;;;;6.31;100.00;101430.94;5067704;28;20032;-58
2022/04/15 02:01:26;;;;;;;21.10;17.83;;;;;;;6.27;100.00;101426.66;5083881;28;20110;-57
2022/04/15 02:03:52;;;;;;;24.75;19.30;;;;;;;6.21;100.00;101424.16;5113585;28;20363;-57
2022/04/15 02:06:17;;;;;;;22.42;18.35;;;;;;;6.14;100.00;101416.44;5114032;28;20024;-57
2022/04/15 02:08:42;;;;;;;29.85;18.90;;;;;;;6.19;100.00;101442.44;5113447;28;20050;-57
2022/04/15 02:11:08;;;;;;;22.20;17.95;;;;;;;6.11;100.00;101429.53;5114132;28;20485;-57
2022/04/15 02:13:33;;;;;;;28.20;19.52;;;;;;;6.11;100.00;101439.97;5085469;28;20133;-58
2022/04/15 02:15:59;;;;;;;29.27;18.85;;;;;;;6.08;100.00;101439.16;5066726;28;20042;-58
2022/04/15 02:18:27;;;;;;;23.92;19.55;;;;;;;5.97;100.00;101417.56;5066538;28;20088;-58
2022/04/15 02:20:53;;;;;;;24.95;19.80;;;;;;;6.05;100.00;101434.81;5071273;28;20880;-58
2022/04/15 02:23:18;;;;;;;22.27;19.33;;;;;;;5.91;100.00;101418.53;5113160;28;20019;-57
2022/04/15 02:25:43;;;;;;;26.08;18.70;;;;;;;5.89;100.00;101428.09;5112557;28;20038;-57
2022/04/15 02:28:09;;;;;;;24.33;20.25;;;;;;;5.84;100.00;101429.91;5112621;28;20035;-57
2022/04/15 02:30:35;;;;;;;21.75;18.58;;;;;;;5.82;100.00;101436.84;5112682;28;20102;-57
2022/04/15 02:33:00;;;;;;;24.77;19.13;;;;;;;5.63;100.00;101404.13;5112440;28;20397;-57
2022/04/15 02:35:27;;;;;;;25.40;18.92;;;;;;;5.78;100.00;101439.56;5112880;28;20048;-57
2022/04/15 02:37:52;;;;;;;26.83;19.58;;;;;;;5.74;100.00;101435.25;5112084;28;20484;-57
2022/04/15 02:40:18;;;;;;;26.95;19.48;;;;;;;5.74;100.00;101438.72;5112387;28;20042;-57
2022/04/15 02:42:43;;;;;;;24.60;19.80;;;;;;;5.69;100.00;101440.53;5112804;28;20023;-58
2022/04/15 02:45:09;;;;;;;26.13;18.50;;;;;;;5.36;100.00;101388.84;5094238;28;20076;-58
2022/04/15 02:47:35;;;;;;;25.70;19.63;;;;;;;5.40;100.00;101403.56;5094729;28;20058;-58
2022/04/15 02:50:00;;;;;;;22.13;18.30;;;;;;;5.58;100.00;101439.78;5094453;28;20027;-57
2022/04/15 02:52:25;;;;;;;29.77;19.95;;;;;;;5.63;100.00;101445.81;5112343;28;20532;-57
2022/04/15 02:54:51;;;;;;;25.17;20.23;;;;;;;5.60;100.00;101440.66;5112356;28;20470;-57
2022/04/15 02:57:16;;;;;;;21.75;19.10;;;;;;;5.56;100.00;101439.84;5095616;28;20037;-57
2022/04/15 02:59:42;;;;;;;24.23;19.60;;;;;;;5.40;100.00;101422.66;5066108;28;20257;-57
2022/04/15 03:02:07;;;;;;;24.35;19.05;;;;;;;5.51;100.00;101440.75;5066687;28;20023;-57
2022/04/15 03:04:32;;;;;;;25.20;18.65;;;;;;;5.49;100.00;101442.53;5065779;28;20024;-57
2022/04/15 03:06:58;;;;;;;22.67;19.35;;;;;;;5.44;100.00;101441.75;5065857;28;20899;-58
2022/04/15 03:09:25;;;;;;;27.23;20.25;;;;;;;5.42;100.00;101441.75;5067448;28;20138;-58
2022/04/15 03:11:50;;;;;;;24.67;18.80;;;;;;;5.40;100.00;101442.66;5065918;28;20134;-58
2022/04/15 03:14:17;;;;;;;26.85;20.65;;;;;;;5.31;100.00;101432.31;5067369;28;20027;-58
2022/04/15 03:16:42;;;;;;;23.02;19.48;;;;;;;5.38;100.00;101449.59;5071111;28;20089;-58
2022/04/15 03:19:08;;;;;;;26.48;18.27;;;;;;;5.25;100.00;101433.25;5061233;28;20028;-58
2022/04/15 03:21:35;;;;;;;24.60;19.15;;;;;;;5.35;100.00;101447.91;5083761;28;20047;-58
2022/04/15 03:24:01;;;;;;;23.83;18.85;;;;;;;5.25;100.00;101435.88;5091627;28;20036;-57
2022/04/15 03:26:27;;;;;;;24.33;18.83;;;;;;;5.13;100.00;101413.44;5091475;28;20028;-57
2022/04/15 03:28:52;;;;;;;22.48;19.20;;;;;;;5.30;100.00;101446.25;5091933;28;20028;-58
2022/04/15 03:31:17;;;;;;;25.70;19.40;;;;;;;5.29;100.00;101441.91;5073694;28;20050;-58
2022/04/15 03:33:43;;;;;;;24.65;18.60;;;;;;;5.30;100.00;101456.66;5091229;28;20028;-58
2022/04/15 03:36:08;;;;;;;27.38;18.27;;;;;;;5.27;100.00;101446.28;5091177;28;20024;-57
2022/04/15 03:38:34;;;;;;;26.00;18.98;;;;;;;5.33;100.00;101454.03;5091440;28;20146;-58
2022/04/15 03:40:59;;;;;;;23.60;18.45;;;;;;;5.31;100.00;101456.63;5091554;28;20039;-58
2022/04/15 03:43:25;;;;;;;20.23;17.52;;;;;;;5.23;100.00;101461.09;5091450;28;20498;-58
2022/04/15 03:45:50;;;;;;;23.75;17.88;;;;;;;5.13;100.00;101444.72;5091827;28;20028;-58
2022/04/15 03:48:15;;;;;;;21.95;17.20;;;;;;;5.08;100.00;101446.47;5092156;28;20481;-58
2022/04/15 03:50:41;;;;;;;24.42;18.30;;;;;;;5.05;100.00;101453.47;5095672;28;20061;-58
2022/04/15 03:53:06;;;;;;;24.77;18.10;;;;;;;4.99;100.00;101446.59;5095994;28;20024;-58
2022/04/15 03:55:31;;;;;;;27.95;18.73;;;;;;;4.98;100.00;101455.28;5096038;28;20028;-58
2022/04/15 03:57:57;;;;;;;27.13;19.98;;;;;;;4.85;100.00;101431.97;5096119;28;20032;-58
2022/04/15 04:00:24;;;;;;;26.08;20.63;;;;;;;4.93;100.00;101459.69;5095954;28;20056;-58
2022/04/15 04:02:52;;;;;;;22.75;18.15;;;;;;;4.82;100.00;101448.50;5095739;28;20035;-58
2022/04/15 04:05:18;;;;;;;30.13;21.25;;;;;;;4.85;100.00;101453.69;5095642;28;20020;-59
2022/04/15 04:07:44;;;;;;;25.48;20.30;;;;;;;4.75;100.00;101444.22;5085259;28;21014;-58
2022/04/15 04:10:12;;;;;;;27.88;20.90;;;;;;;4.71;100.00;101439.94;5049036;28;20035;-58
2022/04/15 04:12:38;;;;;;;28.55;20.70;;;;;;;4.71;100.00;101444.25;5049505;28;20028;-58
2022/04/15 04:15:05;;;;;;;27.33;20.35;;;;;;;4.68;100.00;101452.97;5052573;28;20036;-58
2022/04/15 04:17:30;;;;;;;27.13;22.85;;;;;;;4.62;100.00;101446.09;5051608;28;20907;-58
2022/04/15 04:19:56;;;;;;;27.10;22.83;;;;;;;4.71;100.00;101468.56;5054762;28;20126;-58
2022/04/15 04:22:26;;;;;;;33.38;23.77;;;;;;;4.71;100.00;101465.09;5051389;28;20038;-58
2022/04/15 04:24:51;;;;;;;30.90;22.27;;;;;;;4.64;100.00;101461.69;5051631;28;20032;-58
2022/04/15 04:27:17;;;;;;;27.83;22.80;;;;;;;4.57;100.00;101447.00;5048419;28;20147;-58
2022/04/15 04:29:42;;;;;;;30.95;22.65;;;;;;;4.63;100.00;101459.94;5048283;28;20074;-58
2022/04/15 04:32:08;;;;;;;29.77;20.75;;;;;;;4.61;100.00;101459.09;5050818;28;20056;-58
2022/04/15 04:34:33;;;;;;;25.20;19.85;;;;;;;4.57;100.00;101468.69;5048641;28;20020;-58
2022/04/15 04:36:58;;;;;;;24.80;21.15;;;;;;;4.43;100.00;101443.63;5049594;28;20043;-58
2022/04/15 04:39:26;;;;;;;25.42;19.98;;;;;;;4.57;100.00;101467.81;5052183;28;20028;-58
2022/04/15 04:41:51;;;;;;;31.42;21.55;;;;;;;4.60;100.00;101478.19;5051490;28;20031;-58
2022/04/15 04:44:17;;;;;;;27.23;21.02;;;;;;;4.59;100.00;101481.69;5035254;28;20047;-58
2022/04/15 04:46:42;;;;;;;24.17;19.10;;;;;;;4.56;100.00;101481.72;5036565;28;20981;-58
2022/04/15 04:49:07;;;;;;;24.60;20.10;;;;;;;4.52;100.00;101478.28;5076143;28;20028;-58
2022/04/15 04:51:33;;;;;;;24.88;21.95;;;;;;;4.65;100.00;101492.03;5095151;28;20145;-58
2022/04/15 04:53:58;;;;;;;30.70;23.58;;;;;;;4.77;100.00;101498.88;5095024;28;20028;-58
2022/04/15 04:56:24;;;;;;;29.40;23.85;;;;;;;4.81;100.00;101487.56;5073784;28;20839;-58
2022/04/15 04:58:49;;;;;;;43.30;27.60;;;;;;;4.92;100.00;101491.78;5050885;28;20047;-58
2022/04/15 05:01:14;;;;;;;34.75;24.73;;;;;;;5.04;100.00;101502.09;5094371;28;20020;-58
2022/04/15 05:03:40;;;;;;;30.95;23.33;;;;;;;5.07;100.00;101506.38;5094739;28;20032;-58
2022/04/15 05:06:05;;;;;;;29.42;23.63;;;;;;;5.02;100.00;101498.66;5095001;28;20035;-58
2022/04/15 05:08:30;;;;;;;33.67;25.52;;;;;;;5.08;100.00;101508.13;5084118;28;20043;-59
2022/04/15 05:10:56;;;;;;;32.58;25.35;;;;;;;5.17;100.00;101507.19;5068777;28;20024;-58
2022/04/15 05:13:21;;;;;;;34.47;27.05;;;;;;;5.24;100.00;101509.69;5069862;28;20020;-58
2022/04/15 05:15:46;;;;;;;30.60;25.20;;;;;;;5.35;100.00;101513.06;5088508;28;20034;-58
2022/04/15 05:18:12;;;;;;;28.98;23.23;;;;;;;5.31;100.00;101505.28;5089864;28;20157;-58
2022/04/15 05:20:37;;;;;;;28.77;24.13;;;;;;;5.24;100.00;101514.91;5093936;28;20034;-58
2022/04/15 05:23:03;;;;;;;30.00;23.92;;;;;;;5.12;100.00;101508.09;5094334;28;20052;-58
2022/04/15 05:25:28;;;;;;;25.98;22.42;;;;;;;5.09;100.00;101504.66;5076431;28;20032;-58
2022/04/15 05:27:58;;;;;;;31.70;24.30;;;;;;;5.13;100.00;101520.25;5094286;28;20042;-58
2022/04/15 05:30:23;;;;;;;29.05;24.10;;;;;;;5.18;100.00;101527.13;5094072;28;20021;-58
2022/04/15 05:32:48;;;;;;;28.95;23.02;;;;;;;5.21;100.00;101529.69;5093986;28;20031;-58
2022/04/15 05:35:14;;;;;;;33.95;25.20;;;;;;;5.14;100.00;101508.06;5093852;28;20110;-58
2022/04/15 05:37:39;;;;;;;31.60;23.95;;;;;;;5.34;100.00;101534.78;5094198;28;20067;-59
2022/04/15 05:40:05;;;;;;;40.47;30.50;;;;;;;5.32;100.00;101507.00;5100748;28;20111;-58
2022/04/15 05:42:30;;;;;;;40.00;32.65;;;;;;;5.59;100.00;101532.75;5102195;28;20028;-58
2022/04/15 05:44:56;;;;;;;41.55;33.97;;;;;;;5.76;100.00;101530.81;5093105;28;20032;-58
2022/04/15 05:47:21;;;;;;;45.83;34.08;;;;;;;5.79;100.00;101509.91;5093858;28;20035;-58
2022/04/15 05:49:46;;;;;;;49.50;36.97;;;;;;;6.18;100.00;101546.84;5093812;28;20036;-58
2022/04/15 05:52:12;;;;;;;55.63;41.47;;;;;;;6.32;100.00;101555.34;5093675;28;20501;-58
2022/04/15 05:54:37;;;;;;;55.88;41.15;;;;;;;6.50;100.00;101557.66;5093878;28;20082;-58
2022/04/15 05:57:03;;;;;;;55.25;39.47;;;;;;;6.60;100.00;101560.13;5093376;28;20374;-58
2022/04/15 05:59:28;;;;;;;57.47;42.85;;;;;;;6.76;100.00;101565.97;5078689;28;20036;-58
2022/04/15 06:01:54;;;;;;;57.33;42.70;;;;;;;6.71;100.00;101536.47;5093389;28;20039;-58
2022/04/15 06:04:19;;;;;;;56.63;41.55;;;;;;;6.99;100.00;101573.44;5093836;28;20164;-58
2022/04/15 06:06:44;;;;;;;52.10;44.13;;;;;;;7.12;100.00;101570.59;5112477;28;20023;-58
2022/04/15 06:09:10;;;;;;;64.05;46.63;;;;;;;7.26;100.00;101572.97;5113266;28;20024;-58
2022/04/15 06:11:37;;;;;;;62.00;46.58;;;;;;;7.37;100.00;101576.25;5112321;28;20024;-58
2022/04/15 06:14:03;;;;;;;59.63;44.65;;;;;;;7.50;100.00;101576.91;5113366;28;20111;-58
2022/04/15 06:16:32;;;;;;;60.97;45.88;;;;;;;7.66;100.00;101586.19;5106589;28;20027;-58
2022/04/15 06:18:58;;;;;;;59.03;45.67;;;;;;;7.79;100.00;101579.81;5081437;28;20092;-58
2022/04/15 06:21:23;;;;;;;63.95;47.40;;;;;;;7.86;100.00;101589.25;5091868;28;20020;-58
2022/04/15 06:23:49;;;;;;;62.05;45.33;;;;;;;7.94;100.00;101587.34;5091758;28;20035;-57
2022/04/15 06:26:14;;;;;;;51.13;44.25;;;;;;;7.98;100.00;101589.00;5086015;28;20055;-58
2022/04/15 06:28:39;;;;;;;47.92;42.05;;;;;;;8.02;100.00;101587.19;5082333;28;20030;-58
2022/04/15 06:31:05;;;;;;;55.28;43.13;;;;;;;7.94;100.00;101571.63;5060006;28;20095;-58
2022/04/15 06:33:30;;;;;;;47.83;40.70;;;;;;;8.13;100.00;101601.78;5038926;28;20062;-58
2022/04/15 06:35:55;;;;;;;48.30;40.50;;;;;;;8.14;100.00;101606.13;5047107;28;20032;-58
2022/04/15 06:38:21;;;;;;;56.83;40.28;;;;;;;8.16;100.00;101596.50;5046515;28;20090;-58
2022/04/15 06:40:46;;;;;;;43.70;38.67;;;;;;;8.02;100.00;101561.00;5075531;28;20046;-58
2022/04/15 06:43:13;;;;;;;43.00;37.75;;;;;;;8.15;100.00;101588.66;5092007;28;20032;-58
2022/04/15 06:45:39;;;;;;;48.13;39.53;;;;;;;8.29;100.00;101593.63;5092220;28;20020;-57
2022/04/15 06:48:05;;;;;;;47.70;39.42;;;;;;;8.43;100.00;101604.66;5092360;28;20060;-58
2022/04/15 06:50:30;;;;;;;52.55;39.72;;;;;;;8.49;100.00;101615.00;5091933;28;20064;-58
2022/04/15 06:52:56;;;;;;;48.05;36.70;;;;;;;8.46;100.00;101604.59;5092477;28;20390;-58
2022/04/15 06:55:21;;;;;;;40.95;34.28;;;;;;;8.39;100.00;101582.06;5092389;28;20024;-57
2022/04/15 06:57:47;;;;;;;43.45;36.33;;;;;;;8.47;100.00;101585.38;5092134;28;20081;-58
2022/04/15 07:00:13;;;;;;;44.08;35.60;;;;;;;8.67;100.00;101615.47;5092554;28;20106;-57
2022/04/15 07:02:39;;;;;;;42.65;35.60;;;;;;;8.78;100.00;101620.47;5091795;28;20591;-58
2022/04/15 07:05:06;;;;;;;41.95;36.72;;;;;;;8.86;100.00;101613.28;5092229;28;20371;-58
2022/04/15 07:07:32;;;;;;;39.70;35.15;;;;;;;8.91;100.00;101619.28;5091718;28;20064;-58
2022/04/15 07:09:57;;;;;;;40.38;34.33;;;;;;;8.99;100.00;101627.81;5092332;28;20063;-58
2022/04/15 07:12:23;;;;;;;45.20;34.55;;;;;;;9.11;100.00;101632.78;5091860;28;20485;-58
2022/04/15 07:14:48;;;;;;;37.78;30.75;;;;;;;9.09;100.00;101613.56;5092148;28;20024;-58
2022/04/15 07:17:14;;;;;;;51.08;32.00;;;;;;;9.27;100.00;101628.00;5091592;28;20024;-58
2022/04/15 07:19:39;;;;;;;35.10;30.77;;;;;;;9.30;100.00;101635.78;5091448;28;20036;-58
2022/04/15 07:22:07;;;;;;;38.58;30.77;;;;;;;9.28;100.00;101640.22;5091730;28;20517;-58
2022/04/15 07:24:33;;;;;;;34.20;29.38;;;;;;;9.18;100.00;101636.97;5091956;28;20103;-59
2022/04/15 07:26:59;;;;;;;39.10;29.98;;;;;;;9.23;100.00;101652.56;5091630;28;20455;-57
2022/04/15 07:29:26;;;;;;;37.63;30.85;;;;;;;9.09;100.00;101624.06;5092459;28;20028;-58
2022/04/15 07:31:52;;;;;;;39.50;29.85;;;;;;;8.98;100.00;101627.88;5092015;28;20421;-58
2022/04/15 07:34:17;;;;;;;40.75;29.27;;;;;;;8.92;100.00;101662.91;5092057;28;20358;-58
2022/04/15 07:36:45;;;;;;;35.65;29.13;;;;;;;8.82;100.00;101656.16;5072923;28;20122;-57
2022/04/15 07:39:12;;;;;;;33.00;29.50;;;;;;;8.76;100.00;101660.69;5091949;28;20123;-58
2022/04/15 07:41:38;;;;;;;33.15;28.80;;;;;;;8.76;100.00;101665.94;5091325;28;20050;-58
2022/04/15 07:44:11;;;;;;;41.17;30.35;;;;;;;8.80;100.00;101662.34;5091809;28;20502;-59
2022/04/15 07:46:40;;;;;;;42.47;29.73;;;;;;;8.91;100.00;101662.97;5091762;28;20460;-58
2022/04/15 07:49:06;;;;;;;33.47;29.17;;;;;;;8.90;100.00;101664.72;5091700;28;20553;-58
2022/04/15 07:51:32;;;;;;;33.40;27.40;;;;;;;8.93;100.00;101659.41;5091886;28;20020;-59
2022/04/15 07:53:57;;;;;;;33.22;26.88;;;;;;;8.99;100.00;101669.75;5092145;28;20474;-58
2022/04/15 07:56:23;;;;;;;29.08;26.05;;;;;;;8.88;100.00;101661.28;5091537;28;20039;-58
2022/04/15 07:58:50;;;;;;;26.00;22.55;;;;;;;9.02;100.00;101674.91;5091539;28;20024;-58
2022/04/15 08:01:16;;;;;;;33.42;19.70;;;;;;;8.91;100.00;101682.19;5091605;28;20024;-58
2022/04/15 08:03:41;;;;;;;32.65;20.63;;;;;;;8.76;100.00;101661.56;5091774;28;20161;-58
2022/04/15 08:06:07;;;;;;;22.35;19.90;;;;;;;8.84;100.00;101682.34;5091730;28;20031;-58
2022/04/15 08:08:32;;;;;;;21.00;18.77;;;;;;;8.85;100.00;101687.59;5091846;28;20107;-58
2022/04/15 08:10:58;;;;;;;20.63;18.38;;;;;;;8.84;100.00;101664.00;5091016;28;20137;-59
2022/04/15 08:13:24;;;;;;;22.90;17.38;;;;;;;8.74;100.00;101679.09;5090914;28;20024;-58
2022/04/15 08:15:53;;;;;;;29.90;19.95;;;;;;;8.74;100.00;101689.56;5091760;28;20024;-58
2022/04/15 08:18:23;;;;;;;21.38;19.13;;;;;;;8.78;100.00;101690.38;5091432;28;20398;-58
2022/04/15 08:20:50;;;;;;;31.83;20.88;;;;;;;8.78;100.00;101683.38;5091589;28;20119;-58
2022/04/15 08:23:16;;;;;;;24.45;19.58;;;;;;;8.82;100.00;101690.25;5091900;28;20028;-58
2022/04/15 08:25:43;;;;;;;24.55;19.98;;;;;;;8.65;100.00;101660.97;5091647;28;20024;-57
2022/04/15 08:28:08;;;;;;;22.40;19.35;;;;;;;8.62;100.00;101663.63;5091474;28;20121;-58
2022/04/15 08:30:33;;;;;;;26.15;19.35;;;;;;;8.80;100.00;101699.91;5091359;28;20062;-58
2022/04/15 08:33:00;;;;;;;24.13;21.67;;;;;;;8.82;100.00;101687.63;5091636;28;20031;-58
2022/04/15 08:35:26;;;;;;;22.00;19.50;;;;;;;8.72;100.00;101670.38;5091762;28;20513;-58
2022/04/15 08:37:52;;;;;;;24.70;21.15;;;;;;;8.91;100.00;101707.53;5094886;28;20109;-58
2022/04/15 08:40:17;;;;;;;28.30;20.83;;;;;;;8.92;100.00;101704.88;5094578;28;20070;-58
2022/04/15 08:42:43;;;;;;;28.30;20.90;;;;;;;8.97;100.00;101708.25;5094361;28;20112;-58
2022/04/15 08:45:09;;;;;;;24.05;21.45;;;;;;;8.95;100.00;101712.69;5094651;28;20031;-58
2022/04/15 08:47:39;;;;;;;25.67;22.23;;;;;;;8.95;100.00;101720.56;5094673;28;20039;-58
2022/04/15 08:50:06;;;;;;;30.88;21.88;;;;;;;8.93;100.00;101703.09;5093782;28;20032;-58
2022/04/15 08:52:31;;;;;;;26.42;21.38;;;;;;;9.00;100.00;101723.91;5095071;28;20028;-58
2022/04/15 08:54:58;;;;;;;25.05;21.13;;;;;;;9.03;100.00;101715.97;5094929;28;20173;-58
2022/04/15 08:57:24;;;;;;;27.08;22.08;;;;;;;9.11;100.00;101721.94;5093865;28;20032;-58
2022/04/15 08:59:50;;;;;;;24.95;22.35;;;;;;;9.14;100.00;101721.84;5093548;28;20035;-58
2022/04/15 09:02:30;;;;;;;27.40;21.52;;;;;;;9.17;100.00;101695.56;5094058;28;20059;-58
2022/04/15 09:04:57;;;;;;;23.05;20.60;;;;;;;9.35;100.00;101725.72;5094892;28;20039;-58
2022/04/15 09:07:22;;;;;;;22.42;19.42;;;;;;;9.35;100.00;101730.97;5092579;28;20115;-58
2022/04/15 09:09:54;;;;;;;26.52;20.58;;;;;;;9.31;100.00;101738.94;5092821;28;20150;-58
2022/04/15 09:12:21;;;;;;;24.83;19.80;;;;;;;9.24;100.00;101732.97;5070566;28;20044;-58
2022/04/15 09:14:46;;;;;;;23.02;19.77;;;;;;;9.23;100.00;101736.50;5080225;28;20043;-58
2022/04/15 09:17:11;;;;;;;26.98;20.98;;;;;;;9.20;100.00;101737.44;5093389;28;20390;-58
2022/04/15 09:19:39;;;;;;;26.35;19.95;;;;;;;9.16;100.00;101732.28;5094071;28;20115;-58
2022/04/15 09:22:04;;;;;;;21.17;18.95;;;;;;;9.24;100.00;101752.22;5092571;28;20386;-58
2022/04/15 09:24:33;;;;;;;27.55;21.38;;;;;;;9.34;100.00;101752.00;5094007;28;20032;-59
2022/04/15 09:27:06;;;;;;;24.52;20.08;;;;;;;9.45;100.00;101763.09;5093000;28;20123;-58
2022/04/15 09:29:33;;;;;;;23.33;19.40;;;;;;;9.51;100.00;101742.81;5093578;28;20592;-58
2022/04/15 09:32:24;;;;;;;20.17;17.55;;;;;;;9.54;100.00;101752.38;5093503;28;20032;-58
2022/04/15 09:35:06;;;;;;;22.25;18.77;;;;;;;9.61;100.00;101748.72;5090713;28;20040;-58
2022/04/15 09:37:39;;;;;;;17.85;15.95;;;;;;;9.49;100.00;101728.03;5091165;28;20023;-58
2022/04/15 09:40:18;;;;;;;19.42;17.35;;;;;;;9.80;100.00;101759.63;5075172;28;20035;-58
2022/04/15 09:42:55;;;;;;;20.13;18.05;;;;;;;9.80;100.00;101759.63;5094472;28;20071;-58
2022/04/15 09:45:24;;;;;;;18.65;16.13;;;;;;;9.50;100.00;101727.09;5074362;28;20237;-58
2022/04/15 09:48:12;;;;;;;25.73;17.77;;;;;;;9.65;100.00;101766.09;5044808;28;20035;-59
2022/04/15 09:50:43;;;;;;;20.88;18.63;;;;;;;9.74;100.00;101760.63;5051847;28;20066;-58
2022/04/15 09:53:12;;;;;;;18.60;16.58;;;;;;;9.76;100.00;101764.09;5035523;28;20055;-58
2022/04/15 09:55:40;;;;;;;19.77;14.88;;;;;;;9.80;100.00;101768.34;5045085;28;20082;-58
2022/04/15 09:58:12;;;;;;;19.38;15.32;;;;;;;9.80;100.00;101744.72;5045512;28;20024;-58
2022/04/15 10:00:39;;;;;;;21.60;17.52;;;;;;;10.00;100.00;101773.09;5046855;28;20028;-58
2022/04/15 10:03:08;;;;;;;22.17;16.55;;;;;;;10.08;100.00;101777.25;5046290;28;20039;-58
2022/04/15 10:05:35;;;;;;;18.05;14.80;;;;;;;10.04;100.00;101730.09;5045663;28;20189;-58
2022/04/15 10:08:01;;;;;;;22.25;16.38;;;;;;;10.31;100.00;101768.78;5045910;28;20044;-58
2022/04/15 10:10:28;;;;;;;21.05;16.10;;;;;;;10.40;100.00;101773.81;5047188;28;20047;-58
2022/04/15 10:12:54;;;;;;;16.85;13.90;;;;;;;10.30;100.00;101768.84;5047839;28;20260;-58
2022/04/15 10:15:20;;;;;;;19.75;14.80;;;;;;;10.22;100.00;101769.03;5028396;28;20028;-58
2022/04/15 10:17:45;;;;;;;16.58;14.70;;;;;;;10.30;100.00;101772.34;5029590;28;20032;-58
2022/04/15 10:20:11;;;;;;;21.45;15.10;;;;;;;10.51;100.00;101769.09;5030843;28;20952;-59
2022/04/15 10:22:38;;;;;;;18.25;13.85;;;;;;;10.69;100.00;101770.34;5047420;28;20122;-58
2022/04/15 10:25:05;;;;;;;14.55;13.05;;;;;;;10.52;100.00;101756.81;5048153;28;20902;-58
2022/04/15 10:27:31;;;;;;;16.52;13.65;;;;;;;10.75;100.00;101770.16;5048208;28;20097;-58
2022/04/15 10:30:01;;;;;;;15.35;12.23;;;;;;;10.52;100.00;101720.03;5047306;28;20276;-58
2022/04/15 10:32:27;;;;;;;16.50;12.38;;;;;;;10.91;100.00;101776.72;5043455;28;20036;-58
2022/04/15 10:34:52;;;;;;;19.20;13.68;;;;;;;11.08;100.00;101773.59;5044551;28;20067;-58
2022/04/15 10:37:47;;;;;;;16.98;13.98;;;;;;;11.38;100.00;101769.16;5044922;28;20264;-58
2022/04/15 10:40:30;;;;;;;14.30;12.80;;;;;;;11.66;100.00;101777.91;5044866;28;21086;-57
2022/04/15 10:43:23;;;;;;;15.00;11.70;;;;;;;11.95;100.00;101766.44;5027387;28;20134;-58
2022/04/15 10:45:51;;;;;;;13.57;11.18;;;;;;;12.05;100.00;101759.94;5056253;28;20131;-58
2022/04/15 10:48:34;;;;;;;14.52;11.70;;;;;;;12.57;100.00;101756.31;5085734;28;20032;-58
2022/04/15 10:51:27;;;;;;;16.40;12.15;;;;;;;13.07;100.00;101755.28;5045221;28;20035;-58
2022/04/15 10:53:53;;;;;;;16.58;10.68;;;;;;;13.28;100.00;101753.63;5044569;28;20036;-58
2022/04/15 10:56:20;;;;;;;14.98;10.38;;;;;;;13.49;100.00;101758.00;5044499;28;20128;-58
2022/04/15 11:01:31;;;;;;;11.32;9.18;;;;;;;13.65;100.00;101745.06;5045365;28;20039;-58
2022/04/15 11:04:04;;;;;;;14.57;10.77;;;;;;;13.97;100.00;101739.28;5045178;28;20040;-58
2022/04/15 11:06:30;;;;;;;13.63;9.27;;;;;;;14.05;100.00;101747.75;5046896;28;20043;-58
2022/04/15 11:08:55;;;;;;;11.25;8.88;;;;;;;13.72;100.00;101739.44;5044959;28;20028;-59
2022/04/15 11:11:35;;;;;;;12.65;9.52;;;;;;;13.72;100.00;101739.44;5045845;28;20024;-58